Time;durP1;ratioP1;P1;durP2;ratioP2;P2;SDS_P1;SDS_P2;PMS_P1;PMS_P2;Temp;Humidity;BMP_temperature;BMP_pressure;BME280_temperature;BME280_humidity;BME280_pressure;Samples;Min_cycle;Max_cycle;Signal;HPM_P1;HPM_P2
2023/10/14 00:02:02;;;;;;;4.57;1.05;;;14.50;99.90;;;;;;4969260;28;20603;-67
2023/10/14 00:04:31;;;;;;;4.18;0.85;;;14.50;99.90;;;;;;4963687;28;20257;-67
2023/10/14 00:07:05;;;;;;;3.03;1.13;;;14.50;99.90;;;;;;4980384;28;20198;-67
2023/10/14 00:09:35;;;;;;;4.88;0.82;;;14.50;99.90;;;;;;4982539;28;20206;-67
2023/10/14 00:12:09;;;;;;;5.57;0.93;;;14.60;99.90;;;;;;4980545;28;20209;-67
2023/10/14 00:14:37;;;;;;;2.47;0.85;;;14.30;99.90;;;;;;4994992;28;20676;-67
2023/10/14 00:17:11;;;;;;;5.55;1.30;;;14.30;99.90;;;;;;4979185;28;20423;-67
2023/10/14 00:19:39;;;;;;;1.58;0.75;;;14.40;99.90;;;;;;4963246;28;20226;-67
2023/10/14 00:22:07;;;;;;;3.13;0.75;;;14.40;99.90;;;;;;4992937;28;20330;-67
2023/10/14 00:24:37;;;;;;;3.95;1.10;;;14.30;99.90;;;;;;4992106;28;20559;-67
2023/10/14 00:27:07;;;;;;;1.88;0.73;;;14.30;99.90;;;;;;4993172;28;20221;-67
2023/10/14 00:29:34;;;;;;;3.95;1.00;;;14.40;99.90;;;;;;4985704;28;20206;-67
2023/10/14 00:32:03;;;;;;;2.22;0.88;;;14.40;99.90;;;;;;4981632;28;20751;-67
2023/10/14 00:34:30;;;;;;;4.10;0.93;;;14.30;99.90;;;;;;4997044;28;20337;-67
2023/10/14 00:36:58;;;;;;;3.22;0.70;;;14.20;99.90;;;;;;4962994;28;20214;-67
2023/10/14 00:39:27;;;;;;;3.03;0.95;;;14.20;99.90;;;;;;4990241;28;20691;-67
2023/10/14 00:41:55;;;;;;;2.97;0.70;;;14.20;99.90;;;;;;4989275;28;20265;-67
2023/10/14 00:44:25;;;;;;;3.38;0.90;;;13.90;99.90;;;;;;4983718;28;20206;-67
2023/10/14 00:46:53;;;;;;;1.10;0.60;;;13.80;99.90;;;;;;4983728;28;20207;-67
2023/10/14 00:49:22;;;;;;;1.65;0.73;;;13.80;99.90;;;;;;4992260;28;20658;-67
2023/10/14 00:51:52;;;;;;;1.15;0.65;;;13.90;99.90;;;;;;4962746;28;20217;-67
2023/10/14 00:54:36;;;;;;;2.55;0.65;;;13.90;99.90;;;;;;4998581;28;20228;-67
2023/10/14 00:57:09;;;;;;;2.88;0.77;;;13.90;99.90;;;;;;4981876;28;20752;-67
2023/10/14 00:59:37;;;;;;;1.35;0.73;;;13.80;99.90;;;;;;4995795;28;21154;-67
2023/10/14 01:02:05;;;;;;;2.22;0.80;;;13.70;99.90;;;;;;4972236;28;20524;-67
2023/10/14 01:04:32;;;;;;;3.03;0.80;;;13.70;99.90;;;;;;4996460;28;20203;-67
2023/10/14 01:07:04;;;;;;;1.58;0.90;;;13.60;99.90;;;;;;4951448;28;20692;-67
2023/10/14 01:09:41;;;;;;;2.65;1.05;;;13.70;99.90;;;;;;4993896;28;20224;-67
2023/10/14 01:12:16;;;;;;;3.10;0.80;;;13.70;99.90;;;;;;4992390;28;20610;-67
2023/10/14 01:14:43;;;;;;;0.88;0.52;;;;;;;;;;4977759;28;20233;-67
2023/10/14 01:17:12;;;;;;;1.98;0.73;;;13.70;99.90;;;;;;4983691;28;20903;-67
2023/10/14 01:19:39;;;;;;;6.00;0.77;;;13.80;99.90;;;;;;4985790;28;20206;-67
2023/10/14 01:22:12;;;;;;;2.63;1.00;;;14.10;99.90;;;;;;4960533;28;20648;-68
2023/10/14 01:24:41;;;;;;;2.53;1.05;;;;;;;;;;4995446;28;20785;-67
2023/10/14 01:27:09;;;;;;;2.63;0.82;;;13.80;99.90;;;;;;4994692;28;20208;-67
2023/10/14 01:29:40;;;;;;;2.85;0.65;;;13.80;99.90;;;;;;4994768;28;20204;-67
2023/10/14 01:32:26;;;;;;;1.30;0.65;;;13.80;99.90;;;;;;4990227;28;20459;-67
2023/10/14 01:34:59;;;;;;;1.02;0.70;;;13.90;99.90;;;;;;4977517;28;20216;-67
2023/10/14 01:37:33;;;;;;;0.80;0.60;;;13.80;99.90;;;;;;4966934;28;20214;-67
2023/10/14 01:40:14;;;;;;;3.00;0.68;;;13.70;99.90;;;;;;4992193;28;20229;-67
2023/10/14 01:42:41;;;;;;;1.83;0.52;;;13.80;99.90;;;;;;4984302;28;20653;-67
2023/10/14 01:45:08;;;;;;;1.05;0.95;;;13.70;99.90;;;;;;4990364;28;20392;-67
2023/10/14 01:47:43;;;;;;;0.82;0.65;;;13.80;99.90;;;;;;4995558;28;20199;-67
2023/10/14 01:50:12;;;;;;;4.45;0.63;;;13.70;99.90;;;;;;4981795;28;20768;-67
2023/10/14 01:52:41;;;;;;;1.92;0.70;;;13.70;99.90;;;;;;4962752;28;20535;-67
2023/10/14 01:55:10;;;;;;;3.03;0.32;;;13.70;99.90;;;;;;4994194;28;20198;-67
2023/10/14 01:57:37;;;;;;;1.17;0.70;;;13.70;99.90;;;;;;4992823;28;20217;-67
2023/10/14 02:00:23;;;;;;;1.08;0.70;;;13.70;99.90;;;;;;4988593;28;20198;-67
2023/10/14 02:03:00;;;;;;;1.38;0.65;;;13.70;99.90;;;;;;4996027;28;20210;-67
2023/10/14 02:05:27;;;;;;;2.63;0.57;;;13.70;99.90;;;;;;4988353;28;20225;-67
2023/10/14 02:07:55;;;;;;;3.25;0.80;;;13.60;99.90;;;;;;4975446;28;20207;-67
2023/10/14 02:10:22;;;;;;;1.25;0.60;;;13.60;99.90;;;;;;4996595;28;20206;-67
2023/10/14 02:12:49;;;;;;;3.17;0.82;;;13.60;99.90;;;;;;4995398;28;20630;-67
2023/10/14 02:15:16;;;;;;;4.68;0.90;;;13.60;99.90;;;;;;4985394;28;20419;-67
2023/10/14 02:17:43;;;;;;;3.13;0.82;;;13.70;99.90;;;;;;4995630;28;20787;-67
2023/10/14 02:20:19;;;;;;;4.63;1.00;;;13.60;99.90;;;;;;4983763;28;20865;-67
2023/10/14 02:22:45;;;;;;;2.95;0.65;;;13.60;99.90;;;;;;4987627;28;20367;-67
2023/10/14 02:25:15;;;;;;;6.35;0.98;;;13.60;99.90;;;;;;4967391;28;20217;-67
2023/10/14 02:27:42;;;;;;;4.20;1.10;;;13.60;99.90;;;;;;4993052;28;20319;-67
2023/10/14 02:30:10;;;;;;;3.17;0.80;;;13.60;99.90;;;;;;4995242;28;20356;-67
2023/10/14 02:32:37;;;;;;;0.95;0.70;;;13.60;99.90;;;;;;4993259;28;21067;-67
2023/10/14 02:35:04;;;;;;;4.32;0.90;;;13.40;99.90;;;;;;4990716;28;20866;-67
2023/10/14 02:37:31;;;;;;;10.73;1.60;;;13.50;99.90;;;;;;4983196;28;20210;-67
2023/10/14 02:39:58;;;;;;;4.72;0.75;;;13.60;99.90;;;;;;4964926;28;21203;-67
2023/10/14 02:42:26;;;;;;;5.10;1.15;;;13.50;99.90;;;;;;4993540;28;20216;-67
2023/10/14 02:44:53;;;;;;;6.13;1.00;;;13.50;99.90;;;;;;4980740;28;20207;-67
2023/10/14 02:47:20;;;;;;;2.25;1.05;;;13.50;99.90;;;;;;4994026;28;20198;-67
2023/10/14 02:49:53;;;;;;;4.82;1.02;;;13.40;99.90;;;;;;4980370;28;20213;-67
2023/10/14 02:52:28;;;;;;;1.40;0.88;;;13.30;99.90;;;;;;4986792;28;20659;-67
2023/10/14 02:55:18;;;;;;;1.88;1.17;;;13.40;99.90;;;;;;4993477;28;20257;-67
2023/10/14 02:57:45;;;;;;;4.00;0.95;;;13.20;99.90;;;;;;4966914;28;20609;-67
2023/10/14 03:00:17;;;;;;;4.45;1.23;;;13.20;99.90;;;;;;4987197;28;20293;-67
2023/10/14 03:02:50;;;;;;;2.30;0.70;;;13.20;99.90;;;;;;4991089;28;20210;-67
2023/10/14 03:05:32;;;;;;;6.03;1.30;;;13.10;99.90;;;;;;4993155;28;20242;-67
2023/10/14 03:08:06;;;;;;;6.25;1.60;;;13.10;99.90;;;;;;4985809;28;20210;-67
2023/10/14 03:10:35;;;;;;;3.85;1.27;;;13.00;99.90;;;;;;4987071;28;20899;-67
2023/10/14 03:13:03;;;;;;;6.53;1.67;;;13.00;99.90;;;;;;4964852;28;20210;-67
2023/10/14 03:15:38;;;;;;;4.50;1.50;;;13.00;99.90;;;;;;4995177;28;20202;-67
2023/10/14 03:18:06;;;;;;;6.63;1.30;;;13.00;99.90;;;;;;4990419;28;20251;-67
2023/10/14 03:20:39;;;;;;;4.35;1.20;;;12.90;99.90;;;;;;4995612;28;20207;-67
2023/10/14 03:23:11;;;;;;;9.02;1.90;;;12.80;99.90;;;;;;4985605;28;20206;-67
2023/10/14 03:25:38;;;;;;;6.80;1.52;;;12.90;99.90;;;;;;4981030;28;20265;-67
2023/10/14 03:28:14;;;;;;;6.80;1.48;;;12.80;99.90;;;;;;4967925;28;20219;-67
2023/10/14 03:30:44;;;;;;;8.48;1.92;;;12.80;99.90;;;;;;4995432;28;20197;-67
2023/10/14 03:33:11;;;;;;;16.25;2.20;;;12.80;99.90;;;;;;4991712;28;22113;-67
2023/10/14 03:35:41;;;;;;;5.80;1.45;;;12.80;99.90;;;;;;4995086;28;20205;-67
2023/10/14 03:38:25;;;;;;;6.85;1.80;;;12.70;99.90;;;;;;4980515;28;20217;-67
2023/10/14 03:40:53;;;;;;;7.53;1.58;;;12.70;99.90;;;;;;4992263;28;20209;-67
2023/10/14 03:43:21;;;;;;;8.45;1.77;;;12.60;99.90;;;;;;4947737;28;20455;-67
2023/10/14 03:45:53;;;;;;;7.40;1.25;;;12.70;99.90;;;;;;4994510;28;20206;-67
2023/10/14 03:48:26;;;;;;;11.15;1.65;;;12.60;99.90;;;;;;4986214;28;20601;-67
2023/10/14 03:50:54;;;;;;;5.65;1.20;;;12.70;99.90;;;;;;5000946;28;20202;-67
2023/10/14 03:53:21;;;;;;;6.15;1.63;;;12.70;99.90;;;;;;4992413;28;20319;-67
2023/10/14 03:55:48;;;;;;;8.93;1.20;;;12.60;99.90;;;;;;4982071;28;20199;-67
2023/10/14 03:58:16;;;;;;;5.50;1.45;;;12.60;99.90;;;;;;4963331;28;20678;-67
2023/10/14 04:00:48;;;;;;;4.90;1.80;;;12.60;99.90;;;;;;4990952;28;20202;-67
2023/10/14 04:03:29;;;;;;;7.32;1.33;;;12.60;99.90;;;;;;4993741;28;20822;-67
2023/10/14 04:05:59;;;;;;;6.22;1.70;;;12.60;99.90;;;;;;4996875;28;20237;-67
2023/10/14 04:08:30;;;;;;;10.77;2.42;;;12.50;99.90;;;;;;4993412;28;20519;-67
2023/10/14 04:11:11;;;;;;;2.78;1.33;;;12.50;99.90;;;;;;4970731;28;20709;-67
2023/10/14 04:13:40;;;;;;;5.22;1.05;;;12.80;99.90;;;;;;4953005;28;20843;-67
2023/10/14 04:16:12;;;;;;;3.70;1.50;;;12.40;99.90;;;;;;4990074;28;20572;-67
2023/10/14 04:18:43;;;;;;;4.53;1.20;;;12.00;99.90;;;;;;4982645;28;20446;-67
2023/10/14 04:21:19;;;;;;;6.63;1.45;;;12.40;99.90;;;;;;4993278;28;20667;-67
2023/10/14 04:26:31;;;;;;;5.47;1.42;;;12.20;99.90;;;;;;4971312;28;20205;-67
2023/10/14 04:28:59;;;;;;;3.38;2.15;;;12.30;99.90;;;;;;4963396;28;21527;-67
2023/10/14 04:31:39;;;;;;;4.70;1.23;;;12.30;99.90;;;;;;4992150;28;20411;-67
2023/10/14 04:34:07;;;;;;;13.98;1.88;;;12.30;99.90;;;;;;4996211;28;22380;-67
2023/10/14 04:36:39;;;;;;;3.00;1.42;;;12.30;99.90;;;;;;4991124;28;20884;-67
2023/10/14 04:39:14;;;;;;;8.18;1.83;;;12.30;99.90;;;;;;4983995;28;20195;-67
2023/10/14 04:41:55;;;;;;;7.88;1.58;;;12.20;99.90;;;;;;4985455;28;20788;-67
2023/10/14 04:44:23;;;;;;;7.90;1.50;;;12.20;99.90;;;;;;4954122;28;20218;-67
2023/10/14 04:47:04;;;;;;;7.93;1.85;;;10.80;99.90;;;;;;4992693;28;20203;-66
2023/10/14 04:49:37;;;;;;;3.75;1.23;;;12.10;99.90;;;;;;4990729;28;20487;-67
2023/10/14 04:52:06;;;;;;;4.93;1.30;;;12.10;99.90;;;;;;4991942;28;20563;-67
2023/10/14 04:54:35;;;;;;;8.05;1.58;;;12.10;99.90;;;;;;4986757;28;20455;-67
2023/10/14 04:57:19;;;;;;;8.27;1.90;;;12.10;99.90;;;;;;4981812;28;20210;-67
2023/10/14 04:59:53;;;;;;;9.25;1.38;;;12.10;99.90;;;;;;4945051;28;20213;-67
2023/10/14 05:02:30;;;;;;;4.35;1.52;;;12.00;99.90;;;;;;4990444;28;20257;-67
2023/10/14 05:04:59;;;;;;;3.70;1.67;;;12.00;99.90;;;;;;4982782;28;20233;-67
2023/10/14 05:07:28;;;;;;;6.38;1.20;;;12.00;99.90;;;;;;4992317;28;20431;-67
2023/10/14 05:09:59;;;;;;;8.73;1.75;;;12.00;99.90;;;;;;4980816;28;20214;-67
2023/10/14 05:12:26;;;;;;;5.72;1.45;;;12.00;99.90;;;;;;4981512;28;20745;-67
2023/10/14 05:14:55;;;;;;;4.78;1.08;;;11.90;99.90;;;;;;4964224;28;20229;-67
2023/10/14 05:17:27;;;;;;;10.73;1.40;;;12.00;99.90;;;;;;4990527;28;20205;-67
2023/10/14 05:19:59;;;;;;;11.20;1.63;;;11.90;99.90;;;;;;4988944;28;20271;-66
2023/10/14 05:22:37;;;;;;;9.63;1.73;;;11.90;99.90;;;;;;4983073;28;21028;-66
2023/10/14 05:25:09;;;;;;;4.40;1.30;;;11.90;99.90;;;;;;4985300;28;20204;-66
2023/10/14 05:27:50;;;;;;;5.68;1.52;;;11.90;99.90;;;;;;4986884;28;20297;-66
2023/10/14 05:30:21;;;;;;;6.60;1.70;;;11.90;99.90;;;;;;4956356;28;20333;-67
2023/10/14 05:32:51;;;;;;;14.00;1.73;;;11.90;99.90;;;;;;4993448;28;20723;-66
2023/10/14 05:35:18;;;;;;;5.80;1.38;;;12.30;99.90;;;;;;4991751;28;20251;-66
2023/10/14 05:37:45;;;;;;;8.93;1.00;;;11.90;99.90;;;;;;4986908;28;20213;-67
2023/10/14 05:40:14;;;;;;;3.33;1.30;;;11.90;99.90;;;;;;4989107;28;20314;-66
2023/10/14 05:42:45;;;;;;;5.80;1.75;;;11.90;99.90;;;;;;5000070;28;20194;-66
2023/10/14 05:45:12;;;;;;;4.05;1.30;;;11.80;99.90;;;;;;4989169;28;20582;-66
2023/10/14 05:47:42;;;;;;;4.75;1.98;;;11.90;99.90;;;;;;4968819;28;20306;-66
2023/10/14 05:50:14;;;;;;;4.05;1.48;;;11.80;99.90;;;;;;4991883;28;20203;-67
2023/10/14 05:52:43;;;;;;;7.45;2.05;;;11.70;99.90;;;;;;4988544;28;20231;-66
2023/10/14 05:55:10;;;;;;;6.57;1.27;;;11.60;99.90;;;;;;4996016;28;21128;-66
2023/10/14 05:57:39;;;;;;;5.20;1.27;;;11.60;99.90;;;;;;4997062;28;20221;-66
2023/10/14 06:00:20;;;;;;;8.23;1.27;;;11.70;99.90;;;;;;4993391;28;20288;-66
2023/10/14 06:02:47;;;;;;;19.38;1.40;;;11.70;99.90;;;;;;4961709;28;20244;-66
2023/10/14 06:05:16;;;;;;;10.38;1.85;;;11.70;99.90;;;;;;4996387;28;20230;-66
2023/10/14 06:07:46;;;;;;;7.60;1.00;;;11.70;99.90;;;;;;4996921;28;20976;-66
2023/10/14 06:10:14;;;;;;;6.88;1.25;;;11.70;99.90;;;;;;4978009;28;20199;-66
2023/10/14 06:12:44;;;;;;;9.25;1.73;;;11.60;99.90;;;;;;4979520;28;20356;-66
2023/10/14 06:15:12;;;;;;;5.43;1.40;;;12.30;99.90;;;;;;4995493;28;20258;-66
2023/10/14 06:17:40;;;;;;;6.82;1.55;;;11.60;99.90;;;;;;4957646;28;20440;-66
2023/10/14 06:20:09;;;;;;;6.45;1.27;;;11.70;99.90;;;;;;4982836;28;20407;-66
2023/10/14 06:22:39;;;;;;;4.63;1.33;;;11.60;99.90;;;;;;5000129;28;20695;-66
2023/10/14 06:25:07;;;;;;;3.65;1.20;;;11.60;99.90;;;;;;4979726;28;20791;-66
2023/10/14 06:27:34;;;;;;;8.00;1.33;;;11.60;99.90;;;;;;5003708;28;20312;-66
2023/10/14 06:30:01;;;;;;;6.18;1.58;;;11.60;99.90;;;;;;4997923;28;20410;-66
2023/10/14 06:32:29;;;;;;;4.47;1.30;;;11.60;99.90;;;;;;4974763;28;20209;-66
2023/10/14 06:34:58;;;;;;;3.08;1.15;;;11.60;99.90;;;;;;4986607;28;20256;-66
2023/10/14 06:37:25;;;;;;;6.18;1.40;;;11.60;99.90;;;;;;4997454;28;20925;-66
2023/10/14 06:39:54;;;;;;;8.02;1.20;;;11.60;99.90;;;;;;4982019;28;20198;-66
2023/10/14 06:42:22;;;;;;;7.93;1.33;;;11.60;99.90;;;;;;4996127;28;20229;-66
2023/10/14 06:44:51;;;;;;;6.93;1.27;;;11.60;99.90;;;;;;4996524;28;20201;-66
2023/10/14 06:47:21;;;;;;;4.60;1.13;;;11.60;99.90;;;;;;4995074;28;20205;-66
2023/10/14 06:49:50;;;;;;;5.53;1.73;;;11.40;99.90;;;;;;4952725;28;20718;-66
2023/10/14 06:52:18;;;;;;;12.57;1.85;;;11.70;99.90;;;;;;4998933;28;20198;-66
2023/10/14 06:54:45;;;;;;;7.90;1.88;;;11.80;99.90;;;;;;4989421;28;20330;-66
2023/10/14 06:57:14;;;;;;;8.88;1.70;;;11.40;99.90;;;;;;4986933;28;20541;-66
2023/10/14 06:59:41;;;;;;;14.05;1.52;;;11.80;99.90;;;;;;4994054;28;20660;-66
2023/10/14 07:02:10;;;;;;;13.85;2.20;;;11.80;99.90;;;;;;4980414;28;20209;-66
2023/10/14 07:04:40;;;;;;;12.40;1.55;;;11.90;99.90;;;;;;4965065;28;20288;-65
2023/10/14 07:07:09;;;;;;;12.40;1.63;;;11.90;99.90;;;;;;4984684;28;20222;-66
2023/10/14 07:09:37;;;;;;;6.82;1.73;;;12.10;99.90;;;;;;4996297;28;20201;-66
2023/10/14 07:12:13;;;;;;;8.07;1.85;;;12.10;99.90;;;;;;4997032;28;20706;-66
2023/10/14 07:14:41;;;;;;;6.05;1.48;;;12.20;99.90;;;;;;4984098;28;21167;-66
2023/10/14 07:17:08;;;;;;;11.07;1.48;;;12.20;99.90;;;;;;4990419;28;20229;-66
2023/10/14 07:19:35;;;;;;;9.63;1.80;;;13.30;99.90;;;;;;4973650;28;20218;-66
2023/10/14 07:22:07;;;;;;;6.55;1.40;;;;;;;;;;4998056;28;20229;-66
2023/10/14 07:24:35;;;;;;;9.27;2.85;;;12.40;99.90;;;;;;4984285;28;20237;-66
2023/10/14 07:27:04;;;;;;;16.63;3.28;;;11.90;99.90;;;;;;4980742;28;20265;-66
2023/10/14 07:29:31;;;;;;;9.15;1.75;;;12.40;99.90;;;;;;4985986;28;20233;-66
2023/10/14 07:32:01;;;;;;;13.98;2.95;;;12.40;99.90;;;;;;4980235;28;20591;-66
2023/10/14 07:34:28;;;;;;;8.27;1.85;;;12.40;99.90;;;;;;4987129;28;21942;-66
2023/10/14 07:36:55;;;;;;;12.27;1.60;;;12.30;99.90;;;;;;4958862;28;20528;-66
2023/10/14 07:39:28;;;;;;;3.17;1.35;;;12.40;99.90;;;;;;4982432;28;20264;-66
2023/10/14 07:41:55;;;;;;;11.80;1.98;;;12.30;99.90;;;;;;4983973;28;20219;-67
2023/10/14 07:44:23;;;;;;;10.02;2.00;;;12.40;99.90;;;;;;4988466;28;20748;-66
2023/10/14 07:46:51;;;;;;;6.65;1.67;;;12.40;99.90;;;;;;4975642;28;20245;-67
2023/10/14 07:49:19;;;;;;;11.27;2.17;;;12.40;99.90;;;;;;4994167;28;20218;-67
2023/10/14 07:51:47;;;;;;;8.43;1.80;;;12.50;99.90;;;;;;4958482;28;20226;-66
2023/10/14 07:54:13;;;;;;;12.90;4.80;;;12.50;99.90;;;;;;4982836;28;20230;-66
2023/10/14 07:56:46;;;;;;;17.33;3.75;;;12.50;99.90;;;;;;4990359;28;20230;-66
2023/10/14 07:59:14;;;;;;;7.70;1.88;;;12.60;99.90;;;;;;4993426;28;20214;-67
2023/10/14 08:01:40;;;;;;;14.25;2.85;;;12.10;99.90;;;;;;4980388;28;20794;-67
2023/10/14 08:04:14;;;;;;;7.78;1.52;;;;;;;;;;4987983;28;20733;-67
2023/10/14 08:06:43;;;;;;;15.88;3.55;;;12.70;99.90;;;;;;4944053;28;20409;-67
2023/10/14 08:09:23;;;;;;;8.45;2.30;;;12.50;99.90;;;;;;4975101;28;20242;-67
2023/10/14 08:11:51;;;;;;;5.15;1.58;;;12.70;99.90;;;;;;4994591;28;20221;-67
2023/10/14 08:14:18;;;;;;;10.60;2.08;;;12.90;99.90;;;;;;4968399;28;20224;-67
2023/10/14 08:16:47;;;;;;;4.68;1.48;;;12.70;99.90;;;;;;4991821;28;20233;-67
2023/10/14 08:19:14;;;;;;;7.90;2.75;;;12.70;99.90;;;;;;4972052;28;20223;-66
2023/10/14 08:21:42;;;;;;;11.15;1.85;;;12.50;99.90;;;;;;4960043;28;21078;-66
2023/10/14 08:24:14;;;;;;;12.20;1.70;;;12.60;99.90;;;;;;4962745;28;20885;-66
2023/10/14 08:26:41;;;;;;;9.13;2.00;;;12.60;99.90;;;;;;4972567;28;20228;-66
2023/10/14 08:29:08;;;;;;;16.17;2.03;;;12.70;99.90;;;;;;4989143;28;20304;-67
2023/10/14 08:31:34;;;;;;;18.73;2.38;;;12.70;99.90;;;;;;4991082;28;20221;-67
2023/10/14 08:34:02;;;;;;;7.63;1.88;;;12.70;99.90;;;;;;4986735;28;20699;-67
2023/10/14 08:36:29;;;;;;;5.47;1.65;;;12.80;99.90;;;;;;4965483;28;20239;-67
2023/10/14 08:38:58;;;;;;;8.27;1.50;;;12.90;99.90;;;;;;4988218;28;20225;-67
2023/10/14 08:41:26;;;;;;;9.73;2.13;;;13.00;99.90;;;;;;4983170;28;20202;-67
2023/10/14 08:43:56;;;;;;;11.18;1.83;;;12.90;99.90;;;;;;4984334;28;20198;-66
2023/10/14 08:46:29;;;;;;;15.80;1.92;;;13.00;99.90;;;;;;4997022;28;20275;-66
2023/10/14 08:48:56;;;;;;;8.23;1.73;;;13.00;99.90;;;;;;4974677;28;20404;-66
2023/10/14 08:51:26;;;;;;;10.00;1.80;;;12.80;99.90;;;;;;4979748;28;20578;-66
2023/10/14 08:53:56;;;;;;;13.10;2.13;;;13.30;99.90;;;;;;4949357;28;20241;-66
2023/10/14 08:56:24;;;;;;;11.27;1.33;;;13.20;99.90;;;;;;4970016;28;20226;-66
2023/10/14 08:58:52;;;;;;;3.20;1.08;;;13.20;99.90;;;;;;4990611;28;20360;-67
2023/10/14 09:01:22;;;;;;;3.75;1.35;;;13.20;99.90;;;;;;4990837;28;20738;-66
2023/10/14 09:03:49;;;;;;;4.47;1.35;;;13.30;99.90;;;;;;4994267;28;20209;-66
2023/10/14 09:06:18;;;;;;;4.85;1.10;;;13.20;99.90;;;;;;4984480;28;20226;-66
2023/10/14 09:08:49;;;;;;;7.40;1.45;;;13.00;99.90;;;;;;4970622;28;20265;-66
2023/10/14 09:11:33;;;;;;;9.02;1.30;;;12.30;99.90;;;;;;4974400;28;20227;-66
2023/10/14 09:14:04;;;;;;;12.52;2.35;;;12.50;99.90;;;;;;4998994;28;20217;-66
2023/10/14 09:16:34;;;;;;;8.93;1.35;;;11.80;99.90;;;;;;4996488;28;20241;-66
2023/10/14 09:19:04;;;;;;;11.63;1.63;;;12.40;99.90;;;;;;4986900;28;20237;-66
2023/10/14 09:21:32;;;;;;;5.45;1.67;;;12.40;99.90;;;;;;4993645;28;20229;-65
2023/10/14 09:24:07;;;;;;;4.78;1.27;;;12.60;99.90;;;;;;4961910;28;20245;-66
2023/10/14 09:26:43;;;;;;;41.95;4.55;;;12.80;99.90;;;;;;4976244;28;20601;-66
2023/10/14 09:29:11;;;;;;;3.08;0.98;;;12.70;99.90;;;;;;4998552;28;20225;-66
2023/10/14 09:31:39;;;;;;;4.20;1.10;;;12.80;99.90;;;;;;4979478;28;20291;-66
2023/10/14 09:34:08;;;;;;;9.45;1.25;;;13.00;99.90;;;;;;4981335;28;20699;-66
2023/10/14 09:36:38;;;;;;;20.08;1.98;;;12.90;99.90;;;;;;4990872;28;20328;-66
2023/10/14 09:39:13;;;;;;;7.25;1.23;;;12.90;99.90;;;;;;4968848;28;20825;-66
2023/10/14 09:41:42;;;;;;;7.25;1.42;;;13.10;99.90;;;;;;4975275;28;20265;-66
2023/10/14 09:44:10;;;;;;;2.17;1.05;;;13.10;99.90;;;;;;4982652;28;20233;-66
2023/10/14 09:46:40;;;;;;;10.57;2.22;;;13.20;99.90;;;;;;4985013;28;20226;-66
2023/10/14 09:49:10;;;;;;;6.05;1.23;;;13.10;99.90;;;;;;4986838;28;20229;-66
2023/10/14 09:51:38;;;;;;;3.97;1.10;;;13.30;99.90;;;;;;4991761;28;20252;-66
2023/10/14 09:54:08;;;;;;;9.27;1.88;;;13.30;99.90;;;;;;4991611;28;20272;-66
2023/10/14 09:56:40;;;;;;;6.65;2.58;;;13.40;99.90;;;;;;4959830;28;20252;-66
2023/10/14 09:59:09;;;;;;;5.63;1.10;;;13.40;99.90;;;;;;4982659;28;20744;-66
2023/10/14 10:01:36;;;;;;;8.50;1.30;;;13.30;99.90;;;;;;4990093;28;20236;-66
2023/10/14 10:04:10;;;;;;;4.97;1.30;;;13.30;99.90;;;;;;4990898;28;20675;-66
2023/10/14 10:06:47;;;;;;;4.03;1.38;;;13.70;99.90;;;;;;4990503;28;20236;-65
2023/10/14 10:09:39;;;;;;;5.82;1.30;;;13.30;99.90;;;;;;4999544;28;20303;-65
2023/10/14 10:12:10;;;;;;;22.92;2.15;;;13.40;99.90;;;;;;4955177;28;20696;-65
2023/10/14 10:14:42;;;;;;;7.53;1.85;;;13.40;99.90;;;;;;4977804;28;20236;-65
2023/10/14 10:17:11;;;;;;;25.65;3.78;;;13.50;99.90;;;;;;4977775;28;20757;-65
2023/10/14 10:20:03;;;;;;;6.55;1.63;;;13.60;99.90;;;;;;4973465;28;20218;-65
2023/10/14 10:22:44;;;;;;;9.27;1.65;;;13.60;99.90;;;;;;4994689;28;20779;-65
2023/10/14 10:25:14;;;;;;;5.70;1.45;;;15.80;99.90;;;;;;4959670;28;20227;-65
2023/10/14 10:27:42;;;;;;;5.60;1.60;;;13.70;99.90;;;;;;4973991;28;20234;-66
2023/10/14 10:30:14;;;;;;;10.07;2.00;;;13.60;99.90;;;;;;4986715;28;20228;-65
2023/10/14 10:32:46;;;;;;;7.22;1.50;;;13.50;99.90;;;;;;4993115;28;20229;-66
2023/10/14 10:35:18;;;;;;;6.13;0.95;;;13.30;99.90;;;;;;4986352;28;20285;-65
2023/10/14 10:37:47;;;;;;;2.67;0.60;;;12.90;99.90;;;;;;4993507;28;20587;-65
2023/10/14 10:40:17;;;;;;;5.18;1.25;;;12.90;99.90;;;;;;4999568;28;20296;-65
2023/10/14 10:42:53;;;;;;;13.00;1.65;;;12.90;99.90;;;;;;4953796;28;20222;-65
2023/10/14 10:45:23;;;;;;;1.55;0.88;;;12.90;99.90;;;;;;4984726;28;20326;-65
2023/10/14 10:47:55;;;;;;;18.00;2.47;;;13.30;99.90;;;;;;4993394;28;20198;-65
2023/10/14 10:50:23;;;;;;;7.65;1.95;;;12.80;99.90;;;;;;4972851;28;20222;-65
2023/10/14 10:52:55;;;;;;;2.30;1.05;;;12.80;99.90;;;;;;4976018;28;20228;-65
2023/10/14 10:55:24;;;;;;;4.07;1.15;;;12.80;99.90;;;;;;4988408;28;20210;-65
2023/10/14 10:58:01;;;;;;;1.67;0.68;;;12.50;99.90;;;;;;4956131;28;20233;-65
2023/10/14 11:00:31;;;;;;;3.97;0.85;;;12.40;99.90;;;;;;4983761;28;20204;-65
2023/10/14 11:02:58;;;;;;;2.03;0.88;;;12.30;99.90;;;;;;4998087;28;20206;-65
2023/10/14 11:05:25;;;;;;;2.90;0.82;;;12.40;99.90;;;;;;4992764;28;20233;-65
2023/10/14 11:07:53;;;;;;;5.10;1.10;;;12.50;99.90;;;;;;4988163;28;20205;-65
2023/10/14 11:10:23;;;;;;;5.43;1.10;;;12.50;99.90;;;;;;4999430;28;20233;-65
2023/10/14 11:12:50;;;;;;;1.98;0.80;;;12.30;99.90;;;;;;4962137;28;21198;-65
2023/10/14 11:15:20;;;;;;;4.88;1.20;;;12.20;99.90;;;;;;4986791;28;20202;-65
2023/10/14 11:17:52;;;;;;;9.32;0.93;;;12.10;99.90;;;;;;4989685;28;20284;-65
2023/10/14 11:20:19;;;;;;;7.28;1.23;;;12.20;99.90;;;;;;5001352;28;20205;-65
2023/10/14 11:22:46;;;;;;;4.40;0.73;;;12.30;99.90;;;;;;4977222;28;20234;-65
2023/10/14 11:25:14;;;;;;;9.02;1.63;;;12.20;99.90;;;;;;4993980;28;20209;-65
2023/10/14 11:27:42;;;;;;;2.17;1.05;;;12.20;99.90;;;;;;4979371;28;20205;-65
2023/10/14 11:30:12;;;;;;;7.72;1.35;;;12.30;99.90;;;;;;4978701;28;20230;-65
2023/10/14 11:32:46;;;;;;;4.68;1.20;;;12.40;99.90;;;;;;4997583;28;20225;-65
2023/10/14 11:35:17;;;;;;;5.53;1.40;;;12.50;99.90;;;;;;4987121;28;20221;-65
2023/10/14 11:37:49;;;;;;;23.02;3.60;;;12.60;99.90;;;;;;4988644;28;20229;-65
2023/10/14 11:40:16;;;;;;;3.38;1.00;;;12.70;99.90;;;;;;4980428;28;20246;-65
2023/10/14 11:42:43;;;;;;;5.72;1.30;;;11.50;99.90;;;;;;4993176;28;20734;-65
2023/10/14 11:45:10;;;;;;;24.45;2.22;;;12.80;99.90;;;;;;4955035;28;20225;-66
2023/10/14 11:47:40;;;;;;;6.57;1.30;;;12.80;99.90;;;;;;4994100;28;20230;-65
2023/10/14 11:50:12;;;;;;;2.10;0.90;;;12.90;99.90;;;;;;4994619;28;20202;-65
2023/10/14 11:52:42;;;;;;;7.30;1.20;;;13.10;99.90;;;;;;4982614;28;20226;-65
2023/10/14 11:55:14;;;;;;;5.38;1.20;;;13.50;99.90;;;;;;4983622;28;20208;-65
2023/10/14 11:57:42;;;;;;;5.38;1.05;;;13.20;99.90;;;;;;4998115;28;20814;-65
2023/10/14 12:00:11;;;;;;;7.65;1.65;;;13.00;99.90;;;;;;4947282;28;20715;-65
2023/10/14 12:02:39;;;;;;;6.43;1.52;;;13.20;99.90;;;;;;4998223;28;20233;-65
2023/10/14 12:05:07;;;;;;;10.60;1.70;;;13.00;99.90;;;;;;4988734;28;20222;-65
2023/10/14 12:07:34;;;;;;;4.55;1.55;;;13.40;99.90;;;;;;4996157;28;20194;-65
2023/10/14 12:10:04;;;;;;;10.48;2.28;;;13.60;99.90;;;;;;4982184;28;20202;-65
2023/10/14 12:12:32;;;;;;;10.05;1.92;;;13.60;99.90;;;;;;4991236;28;20846;-65
2023/10/14 12:14:59;;;;;;;5.93;1.20;;;13.60;99.90;;;;;;4975034;28;20213;-65
2023/10/14 12:17:26;;;;;;;5.82;1.40;;;13.10;99.90;;;;;;4965428;28;20585;-65
2023/10/14 12:19:53;;;;;;;8.70;3.13;;;12.90;99.90;;;;;;4997456;28;20229;-65
2023/10/14 12:22:20;;;;;;;5.50;1.10;;;12.50;99.90;;;;;;4984044;28;20415;-65
2023/10/14 12:24:48;;;;;;;4.03;1.15;;;12.20;99.90;;;;;;4983075;28;20210;-65
2023/10/14 12:27:18;;;;;;;4.35;1.27;;;12.10;99.90;;;;;;4982703;28;20708;-65
2023/10/14 12:29:45;;;;;;;6.47;1.83;;;12.10;99.90;;;;;;4957344;28;21157;-65
2023/10/14 12:32:15;;;;;;;2.40;1.00;;;12.20;99.90;;;;;;4942359;28;20248;-65
2023/10/14 12:34:43;;;;;;;11.13;1.35;;;12.20;99.90;;;;;;4981307;28;20235;-65
2023/10/14 12:37:17;;;;;;;26.65;3.47;;;11.00;99.90;;;;;;4977320;28;20272;-65
2023/10/14 12:39:48;;;;;;;2.03;0.95;;;12.50;99.90;;;;;;4990780;28;20222;-65
2023/10/14 12:42:18;;;;;;;3.53;0.85;;;12.50;99.90;;;;;;4971756;28;20237;-65
2023/10/14 12:44:49;;;;;;;7.70;1.42;;;12.60;99.90;;;;;;4988692;28;20222;-65
2023/10/14 12:47:20;;;;;;;5.32;1.13;;;12.50;99.90;;;;;;4941418;28;21279;-66
2023/10/14 12:49:48;;;;;;;4.43;1.20;;;;;;;;;;4993312;28;20310;-65
2023/10/14 12:52:19;;;;;;;6.15;1.30;;;12.70;99.90;;;;;;4965803;28;20226;-65
2023/10/14 12:54:51;;;;;;;10.25;1.58;;;12.60;99.90;;;;;;4994801;28;20226;-65
2023/10/14 12:57:21;;;;;;;8.55;1.10;;;12.60;99.90;;;;;;4965582;28;20237;-65
2023/10/14 12:59:48;;;;;;;6.05;1.30;;;12.50;99.90;;;;;;4982316;28;20228;-65
2023/10/14 13:02:17;;;;;;;4.32;1.33;;;13.30;99.90;;;;;;4954212;28;20750;-65
2023/10/14 13:04:44;;;;;;;11.82;2.30;;;12.50;99.90;;;;;;4973146;28;20226;-65